Fedora — SLKU — position and weather

sailwx.info

Track history (hours):
 
Tides and Currents Weather Stations Pressure Air Temp Water Temp Dewpoint Dewpoint Depression Visibility Wind Speed Wind Dir Waves Ship Positions

Fedora

Last reported at 2015-Jul-02 16:30 UTC. Time now 2015-Jul-02 16:35 UTC.
Position N 50°31' E 000°58'.

Length 228 m; draft 8.6 m.

Type: Cargo ship. MMSI: 266259000.

Date/timePositionNaut miles runAvg speedWind from/ knotsBaromVisibWave heightAir tempDewpointWater temp
2015-Jul-02 16:30N 50°31' E 000°58'76815.1
2015-Jun-30 13:32N 40°12' W 009°50'1818.2
2015-Jun-30 12:32N 39°54' W 009°50'1818.3
2015-Jun-30 11:33N 39°36' W 009°49'1818.1
2015-Jun-30 10:33N 39°18' W 009°49'1818.3
2015-Jun-30 09:33N 38°59' W 009°50'1818.1
2015-Jun-30 08:33N 38°41' W 009°51'1717.2
2015-Jun-30 07:33N 38°25' W 009°45'1716.7
2015-Jun-30 06:33N 38°08' W 009°40'1716.5
2015-Jun-30 05:33N 37°52' W 009°35'1717.1
2015-Jun-30 04:33N 37°36' W 009°30'1817.6
2015-Jun-30 03:33N 37°18' W 009°26'1817.5
2015-Jun-30 02:33N 37°01' W 009°22'1716.8
2015-Jun-30 01:33N 36°47' W 009°11'1717.4
2015-Jun-30 00:33N 36°41' W 008°51'1717.1
2015-Jun-29 23:33N 36°35' W 008°31'1717.3
2015-Jun-29 22:33N 36°30' W 008°10'1817.6
2015-Jun-29 21:33N 36°25' W 007°49'1817.9
2015-Jun-29 20:33N 36°19' W 007°28'1817.8
2015-Jun-29 19:33N 36°13' W 007°07'7316.6
2015-Jun-29 15:10N 35°58' W 005°39'915.2
2015-Jun-29 14:33N 35°60' W 005°28'10816.8
2015-Jun-29 08:08N 36°19' W 003°16'1118.5
2015-Jun-29 07:33N 36°20' W 003°03'1919.1
2015-Jun-29 06:33N 36°23' W 002°39'1919.4
2015-Jun-29 05:33N 36°25' W 002°15'1919.3
2015-Jun-29 04:33N 36°29' W 001°52'2019.6
2015-Jun-29 03:33N 36°34' W 001°28'1919.4
2015-Jun-29 02:33N 36°38' W 001°05'1919.4
2015-Jun-29 01:33N 36°42' W 000°41'2019.4
2015-Jun-29 00:33N 36°46' W 000°17'1919.3
2015-Jun-28 23:33N 36°50' E 000°06'1918.8
2015-Jun-28 22:33N 36°54' E 000°29'1919.0
2015-Jun-28 21:33N 36°58' E 000°53'2019.6
2015-Jun-28 20:33N 37°01' E 001°17'1919.6
2015-Jun-28 19:34N 37°05' E 001°41'1919.4
2015-Jun-28 18:33N 37°09' E 002°05'1919.1
2015-Jun-28 17:33N 37°12' E 002°28'1919.2
2015-Jun-28 16:33N 37°15' E 002°52'1919.4
2015-Jun-28 15:33N 37°19' E 003°16'1918.9
2015-Jun-28 14:33N 37°22' E 003°40'1918.6
2015-Jun-28 13:33N 37°25' E 004°03'1919.1
2015-Jun-28 12:33N 37°28' E 004°27'15519.2
2015-Jun-28 04:29N 37°50' E 007°40'2319.5
2015-Jun-28 03:19N 37°52' E 008°08'1519.9
2015-Jun-28 02:33N 37°54' E 008°27'2019.7
2015-Jun-28 01:33N 37°56' E 008°52'1919.2
2015-Jun-28 00:33N 37°58' E 009°16'1918.9
2015-Jun-27 23:33N 38°00' E 009°40'1818.5
2015-Jun-27 22:33N 38°02' E 010°03'1818.5
2015-Jun-27 21:33N 38°04' E 010°27'1918.5
2015-Jun-27 20:33N 38°06' E 010°50'1818.0
2015-Jun-27 19:33N 37°58' E 011°11'1918.9
2015-Jun-27 18:33N 37°48' E 011°31'1918.8
2015-Jun-27 17:33N 37°38' E 011°52'1918.6
2015-Jun-27 16:33N 37°29' E 012°12'1818.4
2015-Jun-27 15:33N 37°21' E 012°33'1818.3
2015-Jun-27 14:33N 37°13' E 012°53'1817.5
2015-Jun-27 13:33N 37°05' E 013°13'1716.9
2015-Jun-27 12:33N 36°58' E 013°32'1716.8
2015-Jun-27 11:33N 36°50' E 013°51'1817.6
2015-Jun-27 10:33N 36°42' E 014°11'1817.9
2015-Jun-27 09:33N 36°36' E 014°31'1818.2
2015-Jun-27 08:33N 36°35' E 014°54'1918.7
2015-Jun-27 07:33N 36°35' E 015°18'1918.5
2015-Jun-27 06:33N 36°34' E 015°41'36718.3
2015-Jun-26 10:27N 36°31' E 023°18'7619.5
2015-Jun-26 06:33N 37°35' E 024°08'28514.9
2015-Jun-25 11:24N 40°44' E 028°43'1518.1
2015-Jun-25 10:33N 40°44' E 029°03'1616.2
2015-Jun-25 09:33N 40°45' E 029°24'1211.6
2015-Jun-25 08:31N 40°45' E 029°40'3 0.4
2015-Jun-25 01:18N 40°44' E 029°44'3 4.6
2015-Jun-25 00:33N 40°45' E 029°39'10 9.5
2015-Jun-24 23:30N 40°44' E 029°26'1010.1
2015-Jun-24 22:33N 40°43' E 029°14'1616.3
2015-Jun-24 21:34N 40°43' E 028°52'1717.1
2015-Jun-24 20:33N 40°44' E 028°30'25714.3
2015-Jun-24 02:34N 37°48' E 024°27'1817.2
2015-Jun-24 01:30N 37°37' E 024°08'1617.2
2015-Jun-24 00:34N 37°36' E 023°48'1716.6
2015-Jun-23 23:33N 37°51' E 023°37'7 7.2
2015-Jun-23 22:33N 37°58' E 023°36'0 0.0
2015-Jun-23 21:33N 37°58' E 023°36'0 0.0
2015-Jun-23 20:33N 37°58' E 023°36'0 0.0
2015-Jun-23 19:33N 37°58' E 023°36'0 0.0
2015-Jun-23 19:03N 37°58' E 023°36'  
Track history (hours):
 
Tides and Currents Weather Stations Pressure Air Temp Water Temp Dewpoint Dewpoint Depression Visibility Wind Speed Wind Dir Waves Ship Positions

Fedora

Last reported at 2015-Jul-02 16:30 UTC. Time now 2015-Jul-02 16:35 UTC.
Position N 50°31' E 000°58'.

Length 228 m; draft 8.6 m.

Type: Cargo ship. MMSI: 266259000.

Date/timePositionNaut miles runAvg speedWind from/ knotsBaromVisibWave heightAir tempDewpointWater temp
2015-Jul-02 16:30N 50°31' E 000°58'76815.1
2015-Jun-30 13:32N 40°12' W 009°50'1818.2
2015-Jun-30 12:32N 39°54' W 009°50'1818.3
2015-Jun-30 11:33N 39°36' W 009°49'1818.1
2015-Jun-30 10:33N 39°18' W 009°49'1818.3
2015-Jun-30 09:33N 38°59' W 009°50'1818.1
2015-Jun-30 08:33N 38°41' W 009°51'1717.2
2015-Jun-30 07:33N 38°25' W 009°45'1716.7
2015-Jun-30 06:33N 38°08' W 009°40'1716.5
2015-Jun-30 05:33N 37°52' W 009°35'1717.1
2015-Jun-30 04:33N 37°36' W 009°30'1817.6
2015-Jun-30 03:33N 37°18' W 009°26'1817.5
2015-Jun-30 02:33N 37°01' W 009°22'1716.8
2015-Jun-30 01:33N 36°47' W 009°11'1717.4
2015-Jun-30 00:33N 36°41' W 008°51'1717.1
2015-Jun-29 23:33N 36°35' W 008°31'1717.3
2015-Jun-29 22:33N 36°30' W 008°10'1817.6
2015-Jun-29 21:33N 36°25' W 007°49'1817.9
2015-Jun-29 20:33N 36°19' W 007°28'1817.8
2015-Jun-29 19:33N 36°13' W 007°07'7316.6
2015-Jun-29 15:10N 35°58' W 005°39'915.2
2015-Jun-29 14:33N 35°60' W 005°28'10816.8
2015-Jun-29 08:08N 36°19' W 003°16'1118.5
2015-Jun-29 07:33N 36°20' W 003°03'1919.1
2015-Jun-29 06:33N 36°23' W 002°39'1919.4
2015-Jun-29 05:33N 36°25' W 002°15'1919.3
2015-Jun-29 04:33N 36°29' W 001°52'2019.6
2015-Jun-29 03:33N 36°34' W 001°28'1919.4
2015-Jun-29 02:33N 36°38' W 001°05'1919.4
2015-Jun-29 01:33N 36°42' W 000°41'2019.4
2015-Jun-29 00:33N 36°46' W 000°17'1919.3
2015-Jun-28 23:33N 36°50' E 000°06'1918.8
2015-Jun-28 22:33N 36°54' E 000°29'1919.0
2015-Jun-28 21:33N 36°58' E 000°53'2019.6
2015-Jun-28 20:33N 37°01' E 001°17'1919.6
2015-Jun-28 19:34N 37°05' E 001°41'1919.4
2015-Jun-28 18:33N 37°09' E 002°05'1919.1
2015-Jun-28 17:33N 37°12' E 002°28'1919.2
2015-Jun-28 16:33N 37°15' E 002°52'1919.4
2015-Jun-28 15:33N 37°19' E 003°16'1918.9
2015-Jun-28 14:33N 37°22' E 003°40'1918.6
2015-Jun-28 13:33N 37°25' E 004°03'1919.1
2015-Jun-28 12:33N 37°28' E 004°27'15519.2
2015-Jun-28 04:29N 37°50' E 007°40'2319.5
2015-Jun-28 03:19N 37°52' E 008°08'1519.9
2015-Jun-28 02:33N 37°54' E 008°27'2019.7
2015-Jun-28 01:33N 37°56' E 008°52'1919.2
2015-Jun-28 00:33N 37°58' E 009°16'1918.9
2015-Jun-27 23:33N 38°00' E 009°40'1818.5
2015-Jun-27 22:33N 38°02' E 010°03'1818.5
2015-Jun-27 21:33N 38°04' E 010°27'1918.5
2015-Jun-27 20:33N 38°06' E 010°50'1818.0
2015-Jun-27 19:33N 37°58' E 011°11'1918.9
2015-Jun-27 18:33N 37°48' E 011°31'1918.8
2015-Jun-27 17:33N 37°38' E 011°52'1918.6
2015-Jun-27 16:33N 37°29' E 012°12'1818.4
2015-Jun-27 15:33N 37°21' E 012°33'1818.3
2015-Jun-27 14:33N 37°13' E 012°53'1817.5
2015-Jun-27 13:33N 37°05' E 013°13'1716.9
2015-Jun-27 12:33N 36°58' E 013°32'1716.8
2015-Jun-27 11:33N 36°50' E 013°51'1817.6
2015-Jun-27 10:33N 36°42' E 014°11'1817.9
2015-Jun-27 09:33N 36°36' E 014°31'1818.2
2015-Jun-27 08:33N 36°35' E 014°54'1918.7
2015-Jun-27 07:33N 36°35' E 015°18'1918.5
2015-Jun-27 06:33N 36°34' E 015°41'36718.3
2015-Jun-26 10:27N 36°31' E 023°18'7619.5
2015-Jun-26 06:33N 37°35' E 024°08'28514.9
2015-Jun-25 11:24N 40°44' E 028°43'1518.1
2015-Jun-25 10:33N 40°44' E 029°03'1616.2
2015-Jun-25 09:33N 40°45' E 029°24'1211.6
2015-Jun-25 08:31N 40°45' E 029°40'3 0.4
2015-Jun-25 01:18N 40°44' E 029°44'3 4.6
2015-Jun-25 00:33N 40°45' E 029°39'10 9.5
2015-Jun-24 23:30N 40°44' E 029°26'1010.1
2015-Jun-24 22:33N 40°43' E 029°14'1616.3
2015-Jun-24 21:34N 40°43' E 028°52'1717.1
2015-Jun-24 20:33N 40°44' E 028°30'25714.3
2015-Jun-24 02:34N 37°48' E 024°27'1817.2
2015-Jun-24 01:30N 37°37' E 024°08'1617.2
2015-Jun-24 00:34N 37°36' E 023°48'1716.6
2015-Jun-23 23:33N 37°51' E 023°37'7 7.2
2015-Jun-23 22:33N 37°58' E 023°36'0 0.0
2015-Jun-23 21:33N 37°58' E 023°36'0 0.0
2015-Jun-23 20:33N 37°58' E 023°36'0 0.0
2015-Jun-23 19:33N 37°58' E 023°36'0 0.0
2015-Jun-23 19:03N 37°58' E 023°36'  

Dump ship's entire track history